Time;durP1;ratioP1;P1;durP2;ratioP2;P2;SDS_P1;SDS_P2;PMS_P1;PMS_P2;Temp;Humidity;BMP_temperature;BMP_pressure;BME280_temperature;BME280_humidity;BME280_pressure;Samples;Min_cycle;Max_cycle;Signal;HPM_P1;HPM_P2
2019/08/16 00:00:53;;;;;;;6.2;4.1;;;;;;;14.53;100;95455.41;;;;
2019/08/16 00:02:09;;;;;;;6.2;4.1;;;;;;;14.53;100;95455.41;;;;
2019/08/16 00:03:22;;;;;;;6.2;4.1;;;;;;;14.53;100;95455.41;;;;
2019/08/16 00:04:25;;;;;;;4.3;3.299999;;;;;;;14.53;100;95464.92;;;;
2019/08/16 00:05:27;;;;;;;4.3;3.299999;;;;;;;14.53;100;95464.92;;;;
2019/08/16 00:06:30;;;;;;;4.3;3.299999;;;;;;;14.53;100;95464.92;;;;
2019/08/16 00:07:32;;;;;;;4.3;3.299999;;;;;;;14.53;100;95464.92;;;;
2019/08/16 00:08:33;;;;;;;4.3;3.299999;;;;;;;14.53;100;95464.92;;;;
2019/08/16 00:09:35;;;;;;;4.3;3.299999;;;;;;;14.53;100;95464.92;;;;
2019/08/16 00:10:37;;;;;;;4.3;3.299999;;;;;;;14.53;100;95464.92;;;;
2019/08/16 00:11:40;;;;;;;4.3;3.299999;;;;;;;14.53;100;95464.92;;;;
2019/08/16 00:12:43;;;;;;;4.3;3.299999;;;;;;;14.53;100;95464.92;;;;
2019/08/16 00:13:45;;;;;;;4.3;3.299999;;;;;;;14.53;100;95464.92;;;;
2019/08/16 00:14:47;;;;;;;6.7;4.1;;;;;;;14.52;100;95468.7;;;;
2019/08/16 00:15:49;;;;;;;6.7;4.1;;;;;;;14.52;100;95468.7;;;;
2019/08/16 00:16:52;;;;;;;6.7;4.1;;;;;;;14.52;100;95468.7;;;;
2019/08/16 00:17:54;;;;;;;6.7;4.1;;;;;;;14.52;100;95468.7;;;;
2019/08/16 00:18:57;;;;;;;6.7;4.1;;;;;;;14.52;100;95468.7;;;;
2019/08/16 00:19:59;;;;;;;6.7;4.1;;;;;;;14.52;100;95468.7;;;;
2019/08/16 00:21:02;;;;;;;6.7;4.1;;;;;;;14.52;100;95468.7;;;;
2019/08/16 00:22:04;;;;;;;6.7;4.1;;;;;;;14.52;100;95468.7;;;;
2019/08/16 00:23:07;;;;;;;6.7;4.1;;;;;;;14.52;100;95468.7;;;;
2019/08/16 00:24:10;;;;;;;6.7;4.1;;;;;;;14.52;100;95468.7;;;;
2019/08/16 00:25:12;;;;;;;4.599999;3.7;;;;;;;14.57;100;95468.36;;;;
2019/08/16 00:26:15;;;;;;;4.599999;3.7;;;;;;;14.57;100;95468.36;;;;
2019/08/16 00:27:17;;;;;;;4.599999;3.7;;;;;;;14.57;100;95468.36;;;;
2019/08/16 00:28:19;;;;;;;4.599999;3.7;;;;;;;14.57;100;95468.36;;;;
2019/08/16 00:29:20;;;;;;;4.599999;3.7;;;;;;;14.57;100;95468.36;;;;
2019/08/16 00:30:24;;;;;;;4.599999;3.7;;;;;;;14.57;100;95468.36;;;;
2019/08/16 00:31:27;;;;;;;4.599999;3.7;;;;;;;14.57;100;95468.36;;;;
2019/08/16 00:32:29;;;;;;;4.599999;3.7;;;;;;;14.57;100;95468.36;;;;
2019/08/16 00:33:31;;;;;;;4.599999;3.7;;;;;;;14.57;100;95468.36;;;;
2019/08/16 00:34:33;;;;;;;4.599999;3.7;;;;;;;14.57;100;95468.36;;;;
2019/08/16 00:35:35;;;;;;;4.05;3.6;;;;;;;14.5;100;95490.42;;;;
2019/08/16 00:36:46;;;;;;;4.05;3.6;;;;;;;14.5;100;95490.42;;;;
2019/08/16 00:38:03;;;;;;;4.05;3.6;;;;;;;14.5;100;95490.42;;;;
2019/08/16 00:39:05;;;;;;;4.05;3.6;;;;;;;14.5;100;95490.42;;;;
2019/08/16 00:40:08;;;;;;;4.05;3.6;;;;;;;14.5;100;95490.42;;;;
2019/08/16 00:41:14;;;;;;;4.05;3.6;;;;;;;14.5;100;95490.42;;;;
2019/08/16 00:42:16;;;;;;;4.05;3.6;;;;;;;14.5;100;95490.42;;;;
2019/08/16 00:43:18;;;;;;;4.05;3.6;;;;;;;14.5;100;95490.42;;;;
2019/08/16 00:44:19;;;;;;;4.05;3.6;;;;;;;14.5;100;95490.42;;;;
2019/08/16 00:45:23;;;;;;;4.05;3.6;;;;;;;14.5;100;95490.42;;;;
2019/08/16 00:46:28;;;;;;;6.400001;3.85;;;;;;;14.46;100;95499.63;;;;
2019/08/16 00:47:30;;;;;;;6.400001;3.85;;;;;;;14.46;100;95499.63;;;;
2019/08/16 00:48:31;;;;;;;6.400001;3.85;;;;;;;14.46;100;95499.63;;;;
2019/08/16 00:49:33;;;;;;;6.400001;3.85;;;;;;;14.46;100;95499.63;;;;
2019/08/16 00:50:35;;;;;;;6.400001;3.85;;;;;;;14.46;100;95499.63;;;;
2019/08/16 00:51:41;;;;;;;6.400001;3.85;;;;;;;14.46;100;95499.63;;;;
2019/08/16 00:52:43;;;;;;;6.400001;3.85;;;;;;;14.46;100;95499.63;;;;
2019/08/16 00:53:45;;;;;;;6.400001;3.85;;;;;;;14.46;100;95499.63;;;;
2019/08/16 00:54:47;;;;;;;6.400001;3.85;;;;;;;14.46;100;95499.63;;;;
2019/08/16 00:55:49;;;;;;;6.400001;3.85;;;;;;;14.46;100;95499.63;;;;
2019/08/16 00:57:01;;;;;;;5.1;3.95;;;;;;;14.41;100;95490.98;;;;
2019/08/16 00:58:03;;;;;;;5.1;3.95;;;;;;;14.41;100;95490.98;;;;
2019/08/16 00:59:05;;;;;;;5.1;3.95;;;;;;;14.41;100;95490.98;;;;
2019/08/16 01:00:07;;;;;;;5.1;3.95;;;;;;;14.41;100;95490.98;;;;
2019/08/16 01:01:13;;;;;;;5.1;3.95;;;;;;;14.41;100;95490.98;;;;
2019/08/16 01:02:15;;;;;;;5.1;3.95;;;;;;;14.41;100;95490.98;;;;
2019/08/16 01:03:17;;;;;;;5.1;3.95;;;;;;;14.41;100;95490.98;;;;
2019/08/16 01:04:20;;;;;;;5.1;3.95;;;;;;;14.41;100;95490.98;;;;
2019/08/16 01:05:22;;;;;;;5.1;3.95;;;;;;;14.41;100;95490.98;;;;
2019/08/16 01:06:26;;;;;;;5.1;3.95;;;;;;;14.41;100;95490.98;;;;
2019/08/16 01:07:29;;;;;;;4.5;4.1;;;;;;;14.32;100;95500.27;;;;
2019/08/16 01:08:31;;;;;;;4.5;4.1;;;;;;;14.32;100;95500.27;;;;
2019/08/16 01:09:33;;;;;;;4.5;4.1;;;;;;;14.32;100;95500.27;;;;
2019/08/16 01:10:35;;;;;;;4.5;4.1;;;;;;;14.32;100;95500.27;;;;
2019/08/16 01:11:38;;;;;;;4.5;4.1;;;;;;;14.32;100;95500.27;;;;
2019/08/16 01:12:42;;;;;;;4.5;4.1;;;;;;;14.32;100;95500.27;;;;
2019/08/16 01:13:44;;;;;;;4.5;4.1;;;;;;;14.32;100;95500.27;;;;
2019/08/16 01:14:47;;;;;;;4.5;4.1;;;;;;;14.32;100;95500.27;;;;
2019/08/16 01:15:48;;;;;;;4.5;4.1;;;;;;;14.32;100;95500.27;;;;
2019/08/16 01:16:51;;;;;;;4.5;4.1;;;;;;;14.32;100;95500.27;;;;
2019/08/16 01:17:53;;;;;;;5.499999;4;;;;;;;14.27;100;95501.01;;;;
2019/08/16 01:18:55;;;;;;;5.499999;4;;;;;;;14.27;100;95501.01;;;;
2019/08/16 01:19:57;;;;;;;5.499999;4;;;;;;;14.27;100;95501.01;;;;
2019/08/16 01:20:58;;;;;;;5.499999;4;;;;;;;14.27;100;95501.01;;;;
2019/08/16 01:22:01;;;;;;;5.499999;4;;;;;;;14.27;100;95501.01;;;;
2019/08/16 01:23:07;;;;;;;5.499999;4;;;;;;;14.27;100;95501.01;;;;
2019/08/16 01:24:10;;;;;;;5.499999;4;;;;;;;14.27;100;95501.01;;;;
2019/08/16 01:25:13;;;;;;;5.499999;4;;;;;;;14.27;100;95501.01;;;;
2019/08/16 01:26:17;;;;;;;5.499999;4;;;;;;;14.27;100;95501.01;;;;
2019/08/16 01:27:21;;;;;;;5.499999;4;;;;;;;14.27;100;95501.01;;;;
2019/08/16 01:28:49;;;;;;;4.55;4.05;;;;;;;14.33;100;95500.42;;;;
2019/08/16 01:29:52;;;;;;;4.55;4.05;;;;;;;14.33;100;95500.42;;;;
2019/08/16 01:31:45;;;;;;;4.55;4.05;;;;;;;14.33;100;95500.42;;;;
2019/08/16 01:32:52;;;;;;;4.55;4.05;;;;;;;14.33;100;95500.42;;;;
2019/08/16 01:34:04;;;;;;;4.55;4.05;;;;;;;14.33;100;95500.42;;;;
2019/08/16 01:35:12;;;;;;;4.55;4.05;;;;;;;14.33;100;95500.42;;;;
2019/08/16 01:36:19;;;;;;;4.55;4.05;;;;;;;14.33;100;95500.42;;;;
2019/08/16 01:37:34;;;;;;;4.55;4.05;;;;;;;14.33;100;95500.42;;;;
2019/08/16 01:38:37;;;;;;;4.55;4.05;;;;;;;14.33;100;95500.42;;;;
2019/08/16 01:39:39;;;;;;;5.849999;4.25;;;;;;;14.35;100;95514.15;;;;
2019/08/16 01:40:43;;;;;;;5.849999;4.25;;;;;;;14.35;100;95514.15;;;;
2019/08/16 01:41:45;;;;;;;5.849999;4.25;;;;;;;14.35;100;95514.15;;;;
2019/08/16 01:42:47;;;;;;;5.849999;4.25;;;;;;;14.35;100;95514.15;;;;
2019/08/16 01:43:49;;;;;;;5.849999;4.25;;;;;;;14.35;100;95514.15;;;;
2019/08/16 01:44:51;;;;;;;5.849999;4.25;;;;;;;14.35;100;95514.15;;;;
2019/08/16 01:45:54;;;;;;;5.849999;4.25;;;;;;;14.35;100;95514.15;;;;
2019/08/16 01:46:56;;;;;;;5.849999;4.25;;;;;;;14.35;100;95514.15;;;;
2019/08/16 01:47:58;;;;;;;5.849999;4.25;;;;;;;14.35;100;95514.15;;;;
2019/08/16 01:49:00;;;;;;;5.849999;4.25;;;;;;;14.35;100;95514.15;;;;
2019/08/16 01:50:04;;;;;;;6.9;4.35;;;;;;;14.41;100;95510;;;;
2019/08/16 01:51:07;;;;;;;6.9;4.35;;;;;;;14.41;100;95510;;;;
2019/08/16 01:52:20;;;;;;;6.9;4.35;;;;;;;14.41;100;95510;;;;
2019/08/16 01:53:51;;;;;;;6.9;4.35;;;;;;;14.41;100;95510;;;;
2019/08/16 01:54:53;;;;;;;6.9;4.35;;;;;;;14.41;100;95510;;;;
2019/08/16 01:55:55;;;;;;;6.9;4.35;;;;;;;14.41;100;95510;;;;
2019/08/16 01:56:57;;;;;;;6.9;4.35;;;;;;;14.41;100;95510;;;;
2019/08/16 01:58:00;;;;;;;6.9;4.35;;;;;;;14.41;100;95510;;;;
2019/08/16 01:59:03;;;;;;;6.9;4.35;;;;;;;14.41;100;95510;;;;
2019/08/16 02:00:05;;;;;;;7.8;4.5;;;;;;;14.39;100;95521.68;;;;
2019/08/16 02:01:11;;;;;;;7.8;4.5;;;;;;;14.39;100;95521.68;;;;
2019/08/16 02:02:14;;;;;;;7.8;4.5;;;;;;;14.39;100;95521.68;;;;
2019/08/16 02:03:18;;;;;;;7.8;4.5;;;;;;;14.39;100;95521.68;;;;
2019/08/16 02:04:20;;;;;;;7.8;4.5;;;;;;;14.39;100;95521.68;;;;
2019/08/16 02:05:24;;;;;;;7.8;4.5;;;;;;;14.39;100;95521.68;;;;
2019/08/16 02:06:28;;;;;;;7.8;4.5;;;;;;;14.39;100;95521.68;;;;
2019/08/16 02:07:35;;;;;;;7.8;4.5;;;;;;;14.39;100;95521.68;;;;
2019/08/16 02:08:37;;;;;;;7.8;4.5;;;;;;;14.39;100;95521.68;;;;
2019/08/16 02:09:40;;;;;;;7.8;4.5;;;;;;;14.39;100;95521.68;;;;
2019/08/16 02:10:46;;;;;;;5.05;4.35;;;;;;;14.41;100;95523.58;;;;
2019/08/16 02:11:52;;;;;;;5.05;4.35;;;;;;;14.41;100;95523.58;;;;
2019/08/16 02:12:55;;;;;;;5.05;4.35;;;;;;;14.41;100;95523.58;;;;
2019/08/16 02:13:58;;;;;;;5.05;4.35;;;;;;;14.41;100;95523.58;;;;
2019/08/16 02:15:05;;;;;;;5.05;4.35;;;;;;;14.41;100;95523.58;;;;
2019/08/16 02:16:18;;;;;;;5.05;4.35;;;;;;;14.41;100;95523.58;;;;
2019/08/16 02:17:23;;;;;;;5.05;4.35;;;;;;;14.41;100;95523.58;;;;
2019/08/16 02:18:29;;;;;;;5.05;4.35;;;;;;;14.41;100;95523.58;;;;
2019/08/16 02:19:32;;;;;;;5.05;4.35;;;;;;;14.41;100;95523.58;;;;
2019/08/16 02:20:34;;;;;;;5.05;4.35;;;;;;;14.41;100;95523.58;;;;
2019/08/16 02:21:36;;;;;;;6.55;4.05;;;;;;;14.35;100;95536.83;;;;
2019/08/16 02:22:38;;;;;;;6.55;4.05;;;;;;;14.35;100;95536.83;;;;
2019/08/16 02:23:40;;;;;;;6.55;4.05;;;;;;;14.35;100;95536.83;;;;
2019/08/16 02:24:43;;;;;;;6.55;4.05;;;;;;;14.35;100;95536.83;;;;
2019/08/16 02:25:46;;;;;;;6.55;4.05;;;;;;;14.35;100;95536.83;;;;
2019/08/16 02:26:48;;;;;;;6.55;4.05;;;;;;;14.35;100;95536.83;;;;
2019/08/16 02:27:51;;;;;;;6.55;4.05;;;;;;;14.35;100;95536.83;;;;
2019/08/16 02:28:53;;;;;;;6.55;4.05;;;;;;;14.35;100;95536.83;;;;
2019/08/16 02:29:55;;;;;;;6.55;4.05;;;;;;;14.35;100;95536.83;;;;
2019/08/16 02:30:58;;;;;;;6.55;4.05;;;;;;;14.35;100;95536.83;;;;
2019/08/16 02:31:59;;;;;;;6.7;4.45;;;;;;;14.33;100;95537.62;;;;
2019/08/16 02:33:02;;;;;;;6.7;4.45;;;;;;;14.33;100;95537.62;;;;
2019/08/16 02:34:05;;;;;;;6.7;4.45;;;;;;;14.33;100;95537.62;;;;
2019/08/16 02:35:07;;;;;;;6.7;4.45;;;;;;;14.33;100;95537.62;;;;
2019/08/16 02:36:09;;;;;;;6.7;4.45;;;;;;;14.33;100;95537.62;;;;
2019/08/16 02:37:12;;;;;;;6.7;4.45;;;;;;;14.33;100;95537.62;;;;
2019/08/16 02:38:14;;;;;;;6.7;4.45;;;;;;;14.33;100;95537.62;;;;
2019/08/16 02:39:16;;;;;;;6.7;4.45;;;;;;;14.33;100;95537.62;;;;
2019/08/16 02:40:20;;;;;;;6.7;4.45;;;;;;;14.33;100;95537.62;;;;
2019/08/16 02:41:22;;;;;;;6.7;4.45;;;;;;;14.33;100;95537.62;;;;
2019/08/16 02:42:24;;;;;;;6.7;4.45;;;;;;;14.33;100;95537.62;;;;
2019/08/16 02:43:26;;;;;;;5.1;4.55;;;;;;;14.23;100;95547.78;;;;
2019/08/16 02:44:27;;;;;;;5.1;4.55;;;;;;;14.23;100;95547.78;;;;
2019/08/16 02:45:29;;;;;;;5.1;4.55;;;;;;;14.23;100;95547.78;;;;
2019/08/16 02:46:51;;;;;;;5.1;4.55;;;;;;;14.23;100;95547.78;;;;
2019/08/16 02:48:08;;;;;;;5.1;4.55;;;;;;;14.23;100;95547.78;;;;
2019/08/16 02:49:09;;;;;;;5.1;4.55;;;;;;;14.23;100;95547.78;;;;
2019/08/16 02:50:42;;;;;;;5.1;4.55;;;;;;;14.23;100;95547.78;;;;
2019/08/16 02:51:44;;;;;;;5.1;4.55;;;;;;;14.23;100;95547.78;;;;
2019/08/16 02:52:46;;;;;;;5.1;4.55;;;;;;;14.23;100;95547.78;;;;
2019/08/16 02:53:47;;;;;;;6.1;4;;;;;;;14.21;100;95546.41;;;;
2019/08/16 02:54:49;;;;;;;6.1;4;;;;;;;14.21;100;95546.41;;;;
2019/08/16 02:55:51;;;;;;;6.1;4;;;;;;;14.21;100;95546.41;;;;
2019/08/16 02:56:52;;;;;;;6.1;4;;;;;;;14.21;100;95546.41;;;;
2019/08/16 02:57:54;;;;;;;6.1;4;;;;;;;14.21;100;95546.41;;;;
2019/08/16 02:58:56;;;;;;;6.1;4;;;;;;;14.21;100;95546.41;;;;
2019/08/16 03:00:04;;;;;;;6.1;4;;;;;;;14.21;100;95546.41;;;;
2019/08/16 03:01:19;;;;;;;6.1;4;;;;;;;14.21;100;95546.41;;;;
2019/08/16 03:03:29;;;;;;;6.1;4;;;;;;;14.21;100;95546.41;;;;
2019/08/16 03:04:36;;;;;;;5.35;4.149999;;;;;;;14.14;100;95559.35;;;;
2019/08/16 03:05:42;;;;;;;5.35;4.149999;;;;;;;14.14;100;95559.35;;;;
2019/08/16 03:07:04;;;;;;;5.35;4.149999;;;;;;;14.14;100;95559.35;;;;
2019/08/16 03:08:05;;;;;;;5.35;4.149999;;;;;;;14.14;100;95559.35;;;;
2019/08/16 03:09:08;;;;;;;5.35;4.149999;;;;;;;14.14;100;95559.35;;;;
2019/08/16 03:10:13;;;;;;;5.35;4.149999;;;;;;;14.14;100;95559.35;;;;
2019/08/16 03:11:16;;;;;;;5.35;4.149999;;;;;;;14.14;100;95559.35;;;;
2019/08/16 03:12:17;;;;;;;5.35;4.149999;;;;;;;14.14;100;95559.35;;;;
2019/08/16 03:13:19;;;;;;;5.35;4.149999;;;;;;;14.14;100;95559.35;;;;
2019/08/16 03:14:21;;;;;;;7.3;4;;;;;;;14.14;100;95561.1;;;;
2019/08/16 03:15:22;;;;;;;7.3;4;;;;;;;14.14;100;95561.1;;;;
2019/08/16 03:16:24;;;;;;;7.3;4;;;;;;;14.14;100;95561.1;;;;
2019/08/16 03:17:26;;;;;;;7.3;4;;;;;;;14.14;100;95561.1;;;;
2019/08/16 03:18:27;;;;;;;7.3;4;;;;;;;14.14;100;95561.1;;;;
2019/08/16 03:19:29;;;;;;;7.3;4;;;;;;;14.14;100;95561.1;;;;
2019/08/16 03:20:30;;;;;;;7.3;4;;;;;;;14.14;100;95561.1;;;;
2019/08/16 03:21:32;;;;;;;7.3;4;;;;;;;14.14;100;95561.1;;;;
2019/08/16 03:22:34;;;;;;;7.3;4;;;;;;;14.14;100;95561.1;;;;
2019/08/16 03:23:35;;;;;;;7.3;4;;;;;;;14.14;100;95561.1;;;;
2019/08/16 03:24:37;;;;;;;7.3;4;;;;;;;14.14;100;95561.1;;;;
2019/08/16 03:25:38;;;;;;;8.4;4.45;;;;;;;14.1;100;95570.28;;;;
2019/08/16 03:26:40;;;;;;;8.4;4.45;;;;;;;14.1;100;95570.28;;;;
2019/08/16 03:27:41;;;;;;;8.4;4.45;;;;;;;14.1;100;95570.28;;;;
2019/08/16 03:28:43;;;;;;;8.4;4.45;;;;;;;14.1;100;95570.28;;;;
2019/08/16 03:29:44;;;;;;;8.4;4.45;;;;;;;14.1;100;95570.28;;;;
2019/08/16 03:30:46;;;;;;;8.4;4.45;;;;;;;14.1;100;95570.28;;;;
2019/08/16 03:32:34;;;;;;;8.4;4.45;;;;;;;14.1;100;95570.28;;;;
2019/08/16 03:33:46;;;;;;;8.4;4.45;;;;;;;14.1;100;95570.28;;;;
2019/08/16 03:34:54;;;;;;;8.4;4.45;;;;;;;14.1;100;95570.28;;;;
2019/08/16 03:35:55;;;;;;;6.500001;4.349999;;;;;;;14.14;100;95574.14;;;;
2019/08/16 03:36:57;;;;;;;6.500001;4.349999;;;;;;;14.14;100;95574.14;;;;
2019/08/16 03:37:58;;;;;;;6.500001;4.349999;;;;;;;14.14;100;95574.14;;;;
2019/08/16 03:38:59;;;;;;;6.500001;4.349999;;;;;;;14.14;100;95574.14;;;;
2019/08/16 03:40:15;;;;;;;6.500001;4.349999;;;;;;;14.14;100;95574.14;;;;
2019/08/16 03:41:17;;;;;;;6.500001;4.349999;;;;;;;14.14;100;95574.14;;;;
2019/08/16 03:42:19;;;;;;;6.500001;4.349999;;;;;;;14.14;100;95574.14;;;;
2019/08/16 03:43:21;;;;;;;6.500001;4.349999;;;;;;;14.14;100;95574.14;;;;
2019/08/16 03:44:22;;;;;;;6.500001;4.349999;;;;;;;14.14;100;95574.14;;;;
2019/08/16 03:45:24;;;;;;;6.500001;4.349999;;;;;;;14.14;100;95574.14;;;;
2019/08/16 03:46:26;;;;;;;7.050001;4.3;;;;;;;14.08;100;95574.33;;;;
2019/08/16 03:47:28;;;;;;;7.050001;4.3;;;;;;;14.08;100;95574.33;;;;
2019/08/16 03:48:29;;;;;;;7.050001;4.3;;;;;;;14.08;100;95574.33;;;;
2019/08/16 03:49:31;;;;;;;7.050001;4.3;;;;;;;14.08;100;95574.33;;;;
2019/08/16 03:50:32;;;;;;;7.050001;4.3;;;;;;;14.08;100;95574.33;;;;
2019/08/16 03:51:34;;;;;;;7.050001;4.3;;;;;;;14.08;100;95574.33;;;;
2019/08/16 03:52:35;;;;;;;7.050001;4.3;;;;;;;14.08;100;95574.33;;;;
2019/08/16 03:53:37;;;;;;;7.050001;4.3;;;;;;;14.08;100;95574.33;;;;
2019/08/16 03:54:38;;;;;;;7.050001;4.3;;;;;;;14.08;100;95574.33;;;;
2019/08/16 03:55:39;;;;;;;7.050001;4.3;;;;;;;14.08;100;95574.33;;;;
2019/08/16 03:56:41;;;;;;;7.050001;4.3;;;;;;;14.08;100;95574.33;;;;
2019/08/16 03:57:42;;;;;;;9.3;4.749999;;;;;;;14.01;100;95582.25;;;;
2019/08/16 03:58:44;;;;;;;9.3;4.749999;;;;;;;14.01;100;95582.25;;;;
2019/08/16 03:59:45;;;;;;;9.3;4.749999;;;;;;;14.01;100;95582.25;;;;
2019/08/16 04:00:46;;;;;;;9.3;4.749999;;;;;;;14.01;100;95582.25;;;;
2019/08/16 04:02:01;;;;;;;9.3;4.749999;;;;;;;14.01;100;95582.25;;;;
2019/08/16 04:03:07;;;;;;;9.3;4.749999;;;;;;;14.01;100;95582.25;;;;
2019/08/16 04:04:08;;;;;;;9.3;4.749999;;;;;;;14.01;100;95582.25;;;;
2019/08/16 04:05:10;;;;;;;9.3;4.749999;;;;;;;14.01;100;95582.25;;;;
2019/08/16 04:06:12;;;;;;;9.3;4.749999;;;;;;;14.01;100;95582.25;;;;
2019/08/16 04:07:13;;;;;;;9.3;4.749999;;;;;;;14.01;100;95582.25;;;;
2019/08/16 04:08:15;;;;;;;6.600001;4;;;;;;;13.81;100;95576.93;;;;
2019/08/16 04:09:16;;;;;;;6.600001;4;;;;;;;13.81;100;95576.93;;;;
2019/08/16 04:10:20;;;;;;;6.600001;4;;;;;;;13.81;100;95576.93;;;;
2019/08/16 04:11:22;;;;;;;6.600001;4;;;;;;;13.81;100;95576.93;;;;
2019/08/16 04:12:23;;;;;;;6.600001;4;;;;;;;13.81;100;95576.93;;;;
2019/08/16 04:13:25;;;;;;;6.600001;4;;;;;;;13.81;100;95576.93;;;;
2019/08/16 04:14:26;;;;;;;6.600001;4;;;;;;;13.81;100;95576.93;;;;
2019/08/16 04:15:29;;;;;;;6.600001;4;;;;;;;13.81;100;95576.93;;;;
2019/08/16 04:17:37;;;;;;;6.600001;4;;;;;;;13.81;100;95576.93;;;;
2019/08/16 04:18:39;;;;;;;6.4;4.05;;;;;;;13.63;100;95569.06;;;;
2019/08/16 04:19:46;;;;;;;6.4;4.05;;;;;;;13.63;100;95569.06;;;;
2019/08/16 04:20:53;;;;;;;6.4;4.05;;;;;;;13.63;100;95569.06;;;;
2019/08/16 04:21:59;;;;;;;6.4;4.05;;;;;;;13.63;100;95569.06;;;;
2019/08/16 04:23:09;;;;;;;6.4;4.05;;;;;;;13.63;100;95569.06;;;;
2019/08/16 04:24:45;;;;;;;6.4;4.05;;;;;;;13.63;100;95569.06;;;;
2019/08/16 04:25:46;;;;;;;6.4;4.05;;;;;;;13.63;100;95569.06;;;;
2019/08/16 04:26:48;;;;;;;6.4;4.05;;;;;;;13.63;100;95569.06;;;;
2019/08/16 04:27:49;;;;;;;6.4;4.05;;;;;;;13.63;100;95569.06;;;;
2019/08/16 04:28:50;;;;;;;9.05;4.65;;;;;;;13.41;100;95580.36;;;;
2019/08/16 04:29:52;;;;;;;9.05;4.65;;;;;;;13.41;100;95580.36;;;;
2019/08/16 04:30:53;;;;;;;9.05;4.65;;;;;;;13.41;100;95580.36;;;;
2019/08/16 04:32:11;;;;;;;9.05;4.65;;;;;;;13.41;100;95580.36;;;;
2019/08/16 04:33:23;;;;;;;9.05;4.65;;;;;;;13.41;100;95580.36;;;;
2019/08/16 04:34:24;;;;;;;9.05;4.65;;;;;;;13.41;100;95580.36;;;;
2019/08/16 04:35:26;;;;;;;9.05;4.65;;;;;;;13.41;100;95580.36;;;;
2019/08/16 04:36:27;;;;;;;9.05;4.65;;;;;;;13.41;100;95580.36;;;;
2019/08/16 04:37:28;;;;;;;9.05;4.65;;;;;;;13.41;100;95580.36;;;;
2019/08/16 04:38:29;;;;;;;9.05;4.65;;;;;;;13.41;100;95580.36;;;;
2019/08/16 04:39:31;;;;;;;7.349999;4.550001;;;;;;;13.36;100;95579.33;;;;
2019/08/16 04:40:32;;;;;;;7.349999;4.550001;;;;;;;13.36;100;95579.33;;;;
2019/08/16 04:41:34;;;;;;;7.349999;4.550001;;;;;;;13.36;100;95579.33;;;;
2019/08/16 04:42:35;;;;;;;7.349999;4.550001;;;;;;;13.36;100;95579.33;;;;
2019/08/16 04:43:37;;;;;;;7.349999;4.550001;;;;;;;13.36;100;95579.33;;;;
2019/08/16 04:44:38;;;;;;;7.349999;4.550001;;;;;;;13.36;100;95579.33;;;;
2019/08/16 04:45:39;;;;;;;7.349999;4.550001;;;;;;;13.36;100;95579.33;;;;
2019/08/16 04:46:41;;;;;;;7.349999;4.550001;;;;;;;13.36;100;95579.33;;;;
2019/08/16 04:47:42;;;;;;;7.349999;4.550001;;;;;;;13.36;100;95579.33;;;;
2019/08/16 04:48:43;;;;;;;7.349999;4.550001;;;;;;;13.36;100;95579.33;;;;
2019/08/16 04:49:45;;;;;;;7.349999;4.550001;;;;;;;13.36;100;95579.33;;;;
2019/08/16 04:50:46;;;;;;;8.35;4.7;;;;;;;13.32;100;95578.28;;;;
2019/08/16 04:51:47;;;;;;;8.35;4.7;;;;;;;13.32;100;95578.28;;;;
2019/08/16 04:52:49;;;;;;;8.35;4.7;;;;;;;13.32;100;95578.28;;;;
2019/08/16 04:53:50;;;;;;;8.35;4.7;;;;;;;13.32;100;95578.28;;;;
2019/08/16 04:54:51;;;;;;;8.35;4.7;;;;;;;13.32;100;95578.28;;;;
2019/08/16 04:55:53;;;;;;;8.35;4.7;;;;;;;13.32;100;95578.28;;;;
2019/08/16 04:56:54;;;;;;;8.35;4.7;;;;;;;13.32;100;95578.28;;;;
2019/08/16 04:57:55;;;;;;;8.35;4.7;;;;;;;13.32;100;95578.28;;;;
2019/08/16 04:58:56;;;;;;;8.35;4.7;;;;;;;13.32;100;95578.28;;;;
2019/08/16 04:59:57;;;;;;;8.35;4.7;;;;;;;13.32;100;95578.28;;;;
2019/08/16 05:00:59;;;;;;;7.099999;4.6;;;;;;;13.32;100;95580.89;;;;
2019/08/16 05:02:00;;;;;;;7.099999;4.6;;;;;;;13.32;100;95580.89;;;;
2019/08/16 05:03:03;;;;;;;7.099999;4.6;;;;;;;13.32;100;95580.89;;;;
2019/08/16 05:04:04;;;;;;;7.099999;4.6;;;;;;;13.32;100;95580.89;;;;
2019/08/16 05:05:06;;;;;;;7.099999;4.6;;;;;;;13.32;100;95580.89;;;;
2019/08/16 05:06:09;;;;;;;7.099999;4.6;;;;;;;13.32;100;95580.89;;;;
2019/08/16 05:07:11;;;;;;;7.099999;4.6;;;;;;;13.32;100;95580.89;;;;
2019/08/16 05:08:12;;;;;;;7.099999;4.6;;;;;;;13.32;100;95580.89;;;;
2019/08/16 05:09:13;;;;;;;7.099999;4.6;;;;;;;13.32;100;95580.89;;;;
2019/08/16 05:10:16;;;;;;;7.099999;4.6;;;;;;;13.32;100;95580.89;;;;
2019/08/16 05:11:18;;;;;;;6.650001;4.55;;;;;;;13.39;100;95575.7;;;;
2019/08/16 05:12:19;;;;;;;6.650001;4.55;;;;;;;13.39;100;95575.7;;;;
2019/08/16 05:13:20;;;;;;;6.650001;4.55;;;;;;;13.39;100;95575.7;;;;
2019/08/16 05:14:22;;;;;;;6.650001;4.55;;;;;;;13.39;100;95575.7;;;;
2019/08/16 05:15:23;;;;;;;6.650001;4.55;;;;;;;13.39;100;95575.7;;;;
2019/08/16 05:16:25;;;;;;;6.650001;4.55;;;;;;;13.39;100;95575.7;;;;
2019/08/16 05:17:26;;;;;;;6.650001;4.55;;;;;;;13.39;100;95575.7;;;;
2019/08/16 05:18:27;;;;;;;6.650001;4.55;;;;;;;13.39;100;95575.7;;;;
2019/08/16 05:19:29;;;;;;;6.650001;4.55;;;;;;;13.39;100;95575.7;;;;
2019/08/16 05:20:30;;;;;;;6.650001;4.55;;;;;;;13.39;100;95575.7;;;;
2019/08/16 05:21:31;;;;;;;6.650001;4.55;;;;;;;13.39;100;95575.7;;;;
2019/08/16 05:22:32;;;;;;;8.849999;4.799999;;;;;;;13.61;100;95586.53;;;;
2019/08/16 05:23:34;;;;;;;8.849999;4.799999;;;;;;;13.61;100;95586.53;;;;
2019/08/16 05:24:35;;;;;;;8.849999;4.799999;;;;;;;13.61;100;95586.53;;;;
2019/08/16 05:25:36;;;;;;;8.849999;4.799999;;;;;;;13.61;100;95586.53;;;;
2019/08/16 05:26:37;;;;;;;8.849999;4.799999;;;;;;;13.61;100;95586.53;;;;
2019/08/16 05:27:39;;;;;;;8.849999;4.799999;;;;;;;13.61;100;95586.53;;;;
2019/08/16 05:28:40;;;;;;;8.849999;4.799999;;;;;;;13.61;100;95586.53;;;;
2019/08/16 05:29:42;;;;;;;8.849999;4.799999;;;;;;;13.61;100;95586.53;;;;
2019/08/16 05:30:43;;;;;;;8.849999;4.799999;;;;;;;13.61;100;95586.53;;;;
2019/08/16 05:31:47;;;;;;;8.849999;4.799999;;;;;;;13.61;100;95586.53;;;;
2019/08/16 05:32:49;;;;;;;7.75;4.900001;;;;;;;13.76;100;95585.96;;;;
2019/08/16 05:33:51;;;;;;;7.75;4.900001;;;;;;;13.76;100;95585.96;;;;
2019/08/16 05:34:52;;;;;;;7.75;4.900001;;;;;;;13.76;100;95585.96;;;;
2019/08/16 05:35:53;;;;;;;7.75;4.900001;;;;;;;13.76;100;95585.96;;;;
2019/08/16 05:36:54;;;;;;;7.75;4.900001;;;;;;;13.76;100;95585.96;;;;
2019/08/16 05:37:55;;;;;;;7.75;4.900001;;;;;;;13.76;100;95585.96;;;;
2019/08/16 05:38:57;;;;;;;7.75;4.900001;;;;;;;13.76;100;95585.96;;;;
2019/08/16 05:39:58;;;;;;;7.75;4.900001;;;;;;;13.76;100;95585.96;;;;
2019/08/16 05:40:59;;;;;;;7.75;4.900001;;;;;;;13.76;100;95585.96;;;;
2019/08/16 05:42:00;;;;;;;7.75;4.900001;;;;;;;13.76;100;95585.96;;;;
2019/08/16 05:43:02;;;;;;;7.4;4.400001;;;;;;;13.99;100;95575.31;;;;
2019/08/16 05:44:04;;;;;;;7.4;4.400001;;;;;;;13.99;100;95575.31;;;;
2019/08/16 05:45:05;;;;;;;7.4;4.400001;;;;;;;13.99;100;95575.31;;;;
2019/08/16 05:46:08;;;;;;;7.4;4.400001;;;;;;;13.99;100;95575.31;;;;
2019/08/16 05:47:11;;;;;;;7.4;4.400001;;;;;;;13.99;100;95575.31;;;;
2019/08/16 05:48:12;;;;;;;7.4;4.400001;;;;;;;13.99;100;95575.31;;;;
2019/08/16 05:49:14;;;;;;;7.4;4.400001;;;;;;;13.99;100;95575.31;;;;
2019/08/16 05:50:50;;;;;;;7.4;4.400001;;;;;;;13.99;100;95575.31;;;;
2019/08/16 05:51:51;;;;;;;7.4;4.400001;;;;;;;13.99;100;95575.31;;;;
2019/08/16 05:52:53;;;;;;;7.4;4.400001;;;;;;;13.99;100;95575.31;;;;
2019/08/16 05:53:54;;;;;;;7.2;4.199999;;;;;;;14.21;100;95583.87;;;;
2019/08/16 05:54:55;;;;;;;7.2;4.199999;;;;;;;14.21;100;95583.87;;;;
2019/08/16 05:55:56;;;;;;;7.2;4.199999;;;;;;;14.21;100;95583.87;;;;
2019/08/16 05:56:58;;;;;;;7.2;4.199999;;;;;;;14.21;100;95583.87;;;;
2019/08/16 05:57:59;;;;;;;7.2;4.199999;;;;;;;14.21;100;95583.87;;;;
2019/08/16 05:59:00;;;;;;;7.2;4.199999;;;;;;;14.21;100;95583.87;;;;
2019/08/16 06:00:02;;;;;;;7.2;4.199999;;;;;;;14.21;100;95583.87;;;;
2019/08/16 06:01:06;;;;;;;7.2;4.199999;;;;;;;14.21;100;95583.87;;;;
2019/08/16 06:02:08;;;;;;;7.2;4.199999;;;;;;;14.21;100;95583.87;;;;
2019/08/16 06:03:09;;;;;;;7.2;4.199999;;;;;;;14.21;100;95583.87;;;;
2019/08/16 06:04:10;;;;;;;6.5;3.85;;;;;;;14.6;100;95596.39;;;;
2019/08/16 06:05:12;;;;;;;6.5;3.85;;;;;;;14.6;100;95596.39;;;;
2019/08/16 06:06:13;;;;;;;6.5;3.85;;;;;;;14.6;100;95596.39;;;;
2019/08/16 06:07:15;;;;;;;6.5;3.85;;;;;;;14.6;100;95596.39;;;;
2019/08/16 06:08:16;;;;;;;6.5;3.85;;;;;;;14.6;100;95596.39;;;;
2019/08/16 06:09:18;;;;;;;6.5;3.85;;;;;;;14.6;100;95596.39;;;;
2019/08/16 06:10:19;;;;;;;6.5;3.85;;;;;;;14.6;100;95596.39;;;;
2019/08/16 06:11:21;;;;;;;6.5;3.85;;;;;;;14.6;100;95596.39;;;;
2019/08/16 06:12:22;;;;;;;6.5;3.85;;;;;;;14.6;100;95596.39;;;;
2019/08/16 06:13:23;;;;;;;6.5;3.85;;;;;;;14.6;100;95596.39;;;;
2019/08/16 06:14:25;;;;;;;6.5;3.85;;;;;;;14.6;100;95596.39;;;;
2019/08/16 06:15:26;;;;;;;8.449999;4;;;;;;;14.92;100;95606.95;;;;
2019/08/16 06:16:27;;;;;;;8.449999;4;;;;;;;14.92;100;95606.95;;;;
2019/08/16 06:17:28;;;;;;;8.449999;4;;;;;;;14.92;100;95606.95;;;;
2019/08/16 06:18:30;;;;;;;8.449999;4;;;;;;;14.92;100;95606.95;;;;
2019/08/16 06:19:31;;;;;;;8.449999;4;;;;;;;14.92;100;95606.95;;;;
2019/08/16 06:20:32;;;;;;;8.449999;4;;;;;;;14.92;100;95606.95;;;;
2019/08/16 06:21:34;;;;;;;8.449999;4;;;;;;;14.92;100;95606.95;;;;
2019/08/16 06:22:36;;;;;;;8.449999;4;;;;;;;14.92;100;95606.95;;;;
2019/08/16 06:23:37;;;;;;;8.449999;4;;;;;;;14.92;100;95606.95;;;;